sensor_id;sensor_type;location;lat;lon;timestamp;pressure;altitude;pressure_sealevel;temperature;humidity
55675;BME280;41562;44.330;23.802;2024-02-14T00:00:19;99965.53;;;8.50;100.00
55675;BME280;41562;44.330;23.802;2024-02-14T00:02:46;99968.44;;;8.48;100.00
55675;BME280;41562;44.330;23.802;2024-02-14T00:05:14;99971.41;;;8.57;100.00
55675;BME280;41562;44.330;23.802;2024-02-14T00:07:41;99972.72;;;8.55;100.00
55675;BME280;41562;44.330;23.802;2024-02-14T00:10:09;99976.69;;;8.42;100.00
55675;BME280;41562;44.330;23.802;2024-02-14T00:12:36;99985.47;;;8.42;100.00
55675;BME280;41562;44.330;23.802;2024-02-14T00:15:04;99989.75;;;8.38;100.00
55675;BME280;41562;44.330;23.802;2024-02-14T00:17:32;99980.41;;;8.36;100.00
55675;BME280;41562;44.330;23.802;2024-02-14T00:20:02;99988.13;;;8.32;100.00
55675;BME280;41562;44.330;23.802;2024-02-14T00:22:31;99983.53;;;8.23;100.00
55675;BME280;41562;44.330;23.802;2024-02-14T00:24:58;99992.31;;;8.18;100.00
55675;BME280;41562;44.330;23.802;2024-02-14T00:27:25;99987.00;;;8.28;100.00
55675;BME280;41562;44.330;23.802;2024-02-14T00:29:53;99993.66;;;8.21;100.00
55675;BME280;41562;44.330;23.802;2024-02-14T00:32:20;99998.13;;;8.10;100.00
55675;BME280;41562;44.330;23.802;2024-02-14T00:34:47;99999.50;;;8.18;100.00
55675;BME280;41562;44.330;23.802;2024-02-14T00:37:15;100002.16;;;8.23;100.00
55675;BME280;41562;44.330;23.802;2024-02-14T00:39:42;100006.69;;;8.17;100.00
55675;BME280;41562;44.330;23.802;2024-02-14T00:42:10;100008.84;;;8.25;100.00
55675;BME280;41562;44.330;23.802;2024-02-14T00:44:37;99999.22;;;8.14;100.00
55675;BME280;41562;44.330;23.802;2024-02-14T00:47:04;100006.09;;;8.05;100.00
55675;BME280;41562;44.330;23.802;2024-02-14T00:49:34;100009.88;;;8.14;100.00
55675;BME280;41562;44.330;23.802;2024-02-14T00:52:02;100011.44;;;8.05;100.00
55675;BME280;41562;44.330;23.802;2024-02-14T00:54:29;100014.06;;;7.95;100.00
55675;BME280;41562;44.330;23.802;2024-02-14T00:56:56;100013.31;;;8.09;100.00
55675;BME280;41562;44.330;23.802;2024-02-14T00:59:24;100011.38;;;7.90;100.00
55675;BME280;41562;44.330;23.802;2024-02-14T01:01:51;100004.94;;;7.86;100.00
55675;BME280;41562;44.330;23.802;2024-02-14T01:04:19;100001.47;;;7.85;100.00
55675;BME280;41562;44.330;23.802;2024-02-14T01:06:46;100011.09;;;7.91;100.00
55675;BME280;41562;44.330;23.802;2024-02-14T01:09:13;100010.84;;;7.93;100.00
55675;BME280;41562;44.330;23.802;2024-02-14T01:11:40;100011.88;;;7.92;100.00
55675;BME280;41562;44.330;23.802;2024-02-14T01:14:08;100013.00;;;7.96;100.00
55675;BME280;41562;44.330;23.802;2024-02-14T01:16:42;100022.50;;;7.82;100.00
55675;BME280;41562;44.330;23.802;2024-02-14T01:19:10;100021.13;;;7.79;100.00
55675;BME280;41562;44.330;23.802;2024-02-14T01:21:38;100024.09;;;7.78;100.00
55675;BME280;41562;44.330;23.802;2024-02-14T01:24:05;100022.19;;;7.78;100.00
55675;BME280;41562;44.330;23.802;2024-02-14T01:26:33;100021.91;;;7.75;100.00
55675;BME280;41562;44.330;23.802;2024-02-14T01:29:00;100019.81;;;7.77;100.00
55675;BME280;41562;44.330;23.802;2024-02-14T01:31:27;100028.91;;;7.86;100.00
55675;BME280;41562;44.330;23.802;2024-02-14T01:33:55;100030.47;;;7.77;100.00
55675;BME280;41562;44.330;23.802;2024-02-14T01:36:23;100032.13;;;7.93;100.00
55675;BME280;41562;44.330;23.802;2024-02-14T01:38:50;100035.09;;;7.96;100.00
55675;BME280;41562;44.330;23.802;2024-02-14T01:41:18;100048.34;;;7.91;100.00
55675;BME280;41562;44.330;23.802;2024-02-14T01:43:45;100033.16;;;7.82;100.00
55675;BME280;41562;44.330;23.802;2024-02-14T01:46:12;100044.00;;;7.70;100.00
55675;BME280;41562;44.330;23.802;2024-02-14T01:48:41;100046.13;;;7.73;100.00
55675;BME280;41562;44.330;23.802;2024-02-14T01:51:11;100051.31;;;7.90;100.00
55675;BME280;41562;44.330;23.802;2024-02-14T01:53:40;100053.47;;;8.03;100.00
55675;BME280;41562;44.330;23.802;2024-02-14T01:56:08;100052.41;;;8.04;100.00
55675;BME280;41562;44.330;23.802;2024-02-14T01:58:36;100047.84;;;7.94;100.00
55675;BME280;41562;44.330;23.802;2024-02-14T02:01:04;100047.00;;;7.84;100.00
55675;BME280;41562;44.330;23.802;2024-02-14T02:03:31;100057.06;;;7.77;100.00
55675;BME280;41562;44.330;23.802;2024-02-14T02:05:59;100053.34;;;7.78;100.00
55675;BME280;41562;44.330;23.802;2024-02-14T02:08:26;100052.31;;;7.84;100.00
55675;BME280;41562;44.330;23.802;2024-02-14T02:10:54;100047.94;;;7.67;100.00
55675;BME280;41562;44.330;23.802;2024-02-14T02:13:21;100054.66;;;7.75;100.00
55675;BME280;41562;44.330;23.802;2024-02-14T02:15:48;100049.31;;;7.70;100.00
55675;BME280;41562;44.330;23.802;2024-02-14T02:18:15;100057.09;;;7.82;100.00
55675;BME280;41562;44.330;23.802;2024-02-14T02:20:43;100045.88;;;7.75;100.00
55675;BME280;41562;44.330;23.802;2024-02-14T02:23:11;100045.59;;;7.71;100.00
55675;BME280;41562;44.330;23.802;2024-02-14T02:25:39;100054.06;;;7.68;100.00
55675;BME280;41562;44.330;23.802;2024-02-14T02:28:06;100055.97;;;7.73;100.00
55675;BME280;41562;44.330;23.802;2024-02-14T02:30:34;100053.72;;;7.54;100.00
55675;BME280;41562;44.330;23.802;2024-02-14T02:33:01;100051.03;;;7.49;100.00
55675;BME280;41562;44.330;23.802;2024-02-14T02:35:29;100067.47;;;7.46;100.00
55675;BME280;41562;44.330;23.802;2024-02-14T02:37:56;100062.28;;;7.61;100.00
55675;BME280;41562;44.330;23.802;2024-02-14T02:40:24;100060.09;;;7.53;100.00
55675;BME280;41562;44.330;23.802;2024-02-14T02:42:52;100065.78;;;7.35;100.00
55675;BME280;41562;44.330;23.802;2024-02-14T02:45:19;100067.41;;;7.36;100.00
55675;BME280;41562;44.330;23.802;2024-02-14T02:47:47;100070.91;;;7.42;100.00
55675;BME280;41562;44.330;23.802;2024-02-14T02:50:14;100071.72;;;7.42;100.00
55675;BME280;41562;44.330;23.802;2024-02-14T02:52:41;100078.28;;;7.35;100.00
55675;BME280;41562;44.330;23.802;2024-02-14T02:55:09;100077.66;;;7.22;100.00
55675;BME280;41562;44.330;23.802;2024-02-14T02:57:36;100083.59;;;7.03;100.00
55675;BME280;41562;44.330;23.802;2024-02-14T03:00:06;100085.19;;;7.04;100.00
55675;BME280;41562;44.330;23.802;2024-02-14T03:02:35;100084.34;;;7.25;100.00
55675;BME280;41562;44.330;23.802;2024-02-14T03:05:02;100085.34;;;7.19;100.00
55675;BME280;41562;44.330;23.802;2024-02-14T03:07:29;100090.34;;;7.42;100.00
55675;BME280;41562;44.330;23.802;2024-02-14T03:09:57;100097.25;;;7.43;100.00
55675;BME280;41562;44.330;23.802;2024-02-14T03:12:24;100099.69;;;7.18;100.00
55675;BME280;41562;44.330;23.802;2024-02-14T03:14:52;100108.28;;;7.25;100.00
55675;BME280;41562;44.330;23.802;2024-02-14T03:17:19;100108.47;;;7.18;100.00
55675;BME280;41562;44.330;23.802;2024-02-14T03:19:46;100111.00;;;7.35;100.00
55675;BME280;41562;44.330;23.802;2024-02-14T03:22:14;100114.44;;;7.31;100.00
55675;BME280;41562;44.330;23.802;2024-02-14T03:24:41;100119.09;;;7.45;100.00
55675;BME280;41562;44.330;23.802;2024-02-14T03:27:08;100117.91;;;7.31;100.00
55675;BME280;41562;44.330;23.802;2024-02-14T03:29:36;100129.09;;;7.33;100.00
55675;BME280;41562;44.330;23.802;2024-02-14T03:32:03;100125.97;;;7.41;100.00
55675;BME280;41562;44.330;23.802;2024-02-14T03:34:31;100127.72;;;7.31;100.00
55675;BME280;41562;44.330;23.802;2024-02-14T03:36:59;100138.66;;;7.34;100.00
55675;BME280;41562;44.330;23.802;2024-02-14T03:39:27;100130.53;;;7.46;100.00
55675;BME280;41562;44.330;23.802;2024-02-14T03:41:54;100133.66;;;7.38;100.00
55675;BME280;41562;44.330;23.802;2024-02-14T03:44:23;100152.16;;;7.54;100.00
55675;BME280;41562;44.330;23.802;2024-02-14T03:46:50;100152.75;;;7.61;100.00
55675;BME280;41562;44.330;23.802;2024-02-14T03:49:17;100151.97;;;7.66;100.00
55675;BME280;41562;44.330;23.802;2024-02-14T03:51:45;100154.59;;;7.61;100.00
55675;BME280;41562;44.330;23.802;2024-02-14T03:54:12;100161.91;;;7.76;100.00
55675;BME280;41562;44.330;23.802;2024-02-14T03:56:39;100165.56;;;7.64;100.00
55675;BME280;41562;44.330;23.802;2024-02-14T03:59:06;100169.28;;;7.63;100.00
55675;BME280;41562;44.330;23.802;2024-02-14T04:01:34;100170.72;;;7.49;100.00
55675;BME280;41562;44.330;23.802;2024-02-14T04:04:01;100163.69;;;7.33;100.00
55675;BME280;41562;44.330;23.802;2024-02-14T04:06:28;100168.47;;;7.36;100.00
55675;BME280;41562;44.330;23.802;2024-02-14T04:08:56;100175.44;;;7.42;100.00
55675;BME280;41562;44.330;23.802;2024-02-14T04:11:23;100174.69;;;7.47;100.00
55675;BME280;41562;44.330;23.802;2024-02-14T04:13:50;100181.81;;;7.41;100.00
55675;BME280;41562;44.330;23.802;2024-02-14T04:16:20;100190.31;;;7.38;100.00
55675;BME280;41562;44.330;23.802;2024-02-14T04:18:48;100184.03;;;7.49;100.00
55675;BME280;41562;44.330;23.802;2024-02-14T04:21:15;100184.94;;;7.33;100.00
55675;BME280;41562;44.330;23.802;2024-02-14T04:23:42;100186.25;;;7.31;100.00
55675;BME280;41562;44.330;23.802;2024-02-14T04:26:10;100191.56;;;7.31;100.00
55675;BME280;41562;44.330;23.802;2024-02-14T04:28:44;100196.88;;;7.31;100.00
55675;BME280;41562;44.330;23.802;2024-02-14T04:31:12;100197.38;;;7.27;100.00
55675;BME280;41562;44.330;23.802;2024-02-14T04:33:39;100216.38;;;13.34;100.00
55675;BME280;41562;44.330;23.802;2024-02-14T04:36:06;100214.56;;;13.29;100.00
55675;BME280;41562;44.330;23.802;2024-02-14T04:38:34;100209.78;;;13.03;100.00
55675;BME280;41562;44.330;23.802;2024-02-14T04:41:01;100204.50;;;12.74;100.00
55675;BME280;41562;44.330;23.802;2024-02-14T04:43:29;100209.94;;;12.40;100.00
55675;BME280;41562;44.330;23.802;2024-02-14T04:45:56;100216.47;;;13.66;100.00
55675;BME280;41562;44.330;23.802;2024-02-14T04:48:23;100228.84;;;14.00;100.00
55675;BME280;41562;44.330;23.802;2024-02-14T04:50:51;100223.88;;;13.37;100.00
55675;BME280;41562;44.330;23.802;2024-02-14T04:53:18;100219.22;;;13.43;100.00
55675;BME280;41562;44.330;23.802;2024-02-14T04:55:45;100215.81;;;10.71;100.00
55675;BME280;41562;44.330;23.802;2024-02-14T04:58:13;100209.97;;;9.42;100.00
55675;BME280;41562;44.330;23.802;2024-02-14T05:00:40;100202.88;;;8.38;100.00
55675;BME280;41562;44.330;23.802;2024-02-14T05:03:07;100206.03;;;8.03;100.00
55675;BME280;41562;44.330;23.802;2024-02-14T05:05:35;100216.69;;;11.75;100.00
55675;BME280;41562;44.330;23.802;2024-02-14T05:08:03;100231.84;;;12.76;100.00
55675;BME280;41562;44.330;23.802;2024-02-14T05:10:31;100235.50;;;12.85;90.24
55675;BME280;41562;44.330;23.802;2024-02-14T05:12:59;100244.22;;;12.72;85.76
55675;BME280;41562;44.330;23.802;2024-02-14T05:15:26;100236.06;;;12.82;85.68
55675;BME280;41562;44.330;23.802;2024-02-14T05:17:54;100238.81;;;12.77;86.08
55675;BME280;41562;44.330;23.802;2024-02-14T05:20:21;100238.34;;;12.94;85.46
55675;BME280;41562;44.330;23.802;2024-02-14T05:22:49;100241.47;;;12.53;86.71
55675;BME280;41562;44.330;23.802;2024-02-14T05:25:16;100241.25;;;9.72;100.00
55675;BME280;41562;44.330;23.802;2024-02-14T05:27:43;100236.00;;;8.53;100.00
55675;BME280;41562;44.330;23.802;2024-02-14T05:30:11;100245.66;;;7.95;100.00
55675;BME280;41562;44.330;23.802;2024-02-14T05:32:38;100249.91;;;7.64;100.00
55675;BME280;41562;44.330;23.802;2024-02-14T05:35:06;100259.00;;;7.46;100.00
55675;BME280;41562;44.330;23.802;2024-02-14T05:37:33;100269.38;;;7.70;100.00
55675;BME280;41562;44.330;23.802;2024-02-14T05:40:05;100266.56;;;7.81;100.00
55675;BME280;41562;44.330;23.802;2024-02-14T05:42:32;100267.25;;;7.72;100.00
55675;BME280;41562;44.330;23.802;2024-02-14T05:45:00;100276.19;;;7.60;100.00
55675;BME280;41562;44.330;23.802;2024-02-14T05:47:27;100274.97;;;7.46;100.00
55675;BME280;41562;44.330;23.802;2024-02-14T05:49:54;100280.72;;;7.87;100.00
55675;BME280;41562;44.330;23.802;2024-02-14T05:52:22;100272.81;;;7.65;100.00
55675;BME280;41562;44.330;23.802;2024-02-14T05:54:49;100280.28;;;7.46;100.00
55675;BME280;41562;44.330;23.802;2024-02-14T05:57:16;100278.72;;;7.45;100.00
55675;BME280;41562;44.330;23.802;2024-02-14T05:59:43;100285.19;;;7.54;100.00
55675;BME280;41562;44.330;23.802;2024-02-14T06:02:12;100283.91;;;7.35;100.00
55675;BME280;41562;44.330;23.802;2024-02-14T06:04:39;100286.59;;;7.40;100.00
55675;BME280;41562;44.330;23.802;2024-02-14T06:07:07;100289.53;;;7.39;100.00
55675;BME280;41562;44.330;23.802;2024-02-14T06:09:35;100290.44;;;7.49;100.00
55675;BME280;41562;44.330;23.802;2024-02-14T06:12:03;100300.59;;;7.52;100.00
55675;BME280;41562;44.330;23.802;2024-02-14T06:14:31;100296.56;;;7.50;100.00
55675;BME280;41562;44.330;23.802;2024-02-14T06:16:59;100306.69;;;7.53;100.00
55675;BME280;41562;44.330;23.802;2024-02-14T06:19:27;100316.56;;;7.52;100.00
55675;BME280;41562;44.330;23.802;2024-02-14T06:21:55;100308.69;;;7.41;100.00
55675;BME280;41562;44.330;23.802;2024-02-14T06:24:23;100316.44;;;7.42;100.00
55675;BME280;41562;44.330;23.802;2024-02-14T06:26:51;100321.09;;;7.52;100.00
55675;BME280;41562;44.330;23.802;2024-02-14T06:29:19;100323.38;;;7.43;100.00
55675;BME280;41562;44.330;23.802;2024-02-14T06:31:46;100322.25;;;7.39;100.00
55675;BME280;41562;44.330;23.802;2024-02-14T06:34:13;100317.84;;;7.50;100.00
55675;BME280;41562;44.330;23.802;2024-02-14T06:36:41;100317.06;;;7.49;100.00
55675;BME280;41562;44.330;23.802;2024-02-14T06:39:08;100329.78;;;7.47;100.00
55675;BME280;41562;44.330;23.802;2024-02-14T06:41:35;100326.66;;;7.50;100.00
55675;BME280;41562;44.330;23.802;2024-02-14T06:44:04;100325.28;;;7.48;100.00
55675;BME280;41562;44.330;23.802;2024-02-14T06:46:31;100334.06;;;7.48;100.00
55675;BME280;41562;44.330;23.802;2024-02-14T06:48:58;100330.41;;;7.54;100.00
55675;BME280;41562;44.330;23.802;2024-02-14T06:51:26;100334.13;;;7.53;100.00
55675;BME280;41562;44.330;23.802;2024-02-14T06:53:53;100331.03;;;7.61;100.00
55675;BME280;41562;44.330;23.802;2024-02-14T06:56:20;100338.44;;;7.59;100.00
55675;BME280;41562;44.330;23.802;2024-02-14T06:58:48;100332.81;;;7.56;100.00
55675;BME280;41562;44.330;23.802;2024-02-14T07:01:15;100338.53;;;7.64;100.00
55675;BME280;41562;44.330;23.802;2024-02-14T07:03:42;100346.25;;;7.66;100.00
55675;BME280;41562;44.330;23.802;2024-02-14T07:06:09;100340.72;;;7.73;100.00
55675;BME280;41562;44.330;23.802;2024-02-14T07:08:37;100340.38;;;7.91;100.00
55675;BME280;41562;44.330;23.802;2024-02-14T07:11:04;100349.44;;;7.90;100.00
55675;BME280;41562;44.330;23.802;2024-02-14T07:13:32;100352.81;;;8.07;100.00
55675;BME280;41562;44.330;23.802;2024-02-14T07:15:59;100351.94;;;8.28;100.00
55675;BME280;41562;44.330;23.802;2024-02-14T07:18:26;100350.00;;;8.45;100.00
55675;BME280;41562;44.330;23.802;2024-02-14T07:20:54;100351.03;;;8.76;100.00
55675;BME280;41562;44.330;23.802;2024-02-14T07:23:21;100346.06;;;8.90;100.00
55675;BME280;41562;44.330;23.802;2024-02-14T07:25:48;100361.81;;;9.39;100.00
55675;BME280;41562;44.330;23.802;2024-02-14T07:28:15;100365.31;;;10.32;100.00
55675;BME280;41562;44.330;23.802;2024-02-14T07:30:43;100371.19;;;10.24;99.79
55675;BME280;41562;44.330;23.802;2024-02-14T07:33:11;100363.44;;;10.17;100.00
55675;BME280;41562;44.330;23.802;2024-02-14T07:35:38;100368.97;;;10.00;100.00
55675;BME280;41562;44.330;23.802;2024-02-14T07:38:06;100380.31;;;10.43;98.30
55675;BME280;41562;44.330;23.802;2024-02-14T07:40:33;100389.38;;;10.87;96.44
55675;BME280;41562;44.330;23.802;2024-02-14T07:43:01;100385.13;;;10.71;97.90
55675;BME280;41562;44.330;23.802;2024-02-14T07:45:28;100380.53;;;11.17;100.00
55675;BME280;41562;44.330;23.802;2024-02-14T07:47:56;100382.38;;;11.22;94.27
55675;BME280;41562;44.330;23.802;2024-02-14T07:50:23;100385.66;;;10.48;96.22
55675;BME280;41562;44.330;23.802;2024-02-14T07:52:51;100377.03;;;10.16;99.82
55675;BME280;41562;44.330;23.802;2024-02-14T07:55:18;100380.75;;;10.15;100.00
55675;BME280;41562;44.330;23.802;2024-02-14T07:57:45;100388.56;;;11.02;96.03
55675;BME280;41562;44.330;23.802;2024-02-14T08:00:13;100397.34;;;11.28;93.08
55675;BME280;41562;44.330;23.802;2024-02-14T08:02:40;100395.25;;;10.95;95.23
55675;BME280;41562;44.330;23.802;2024-02-14T08:05:08;100400.88;;;10.47;97.06
55675;BME280;41562;44.330;23.802;2024-02-14T08:07:35;100395.78;;;10.31;98.32
55675;BME280;41562;44.330;23.802;2024-02-14T08:10:03;100391.53;;;10.40;100.00
55675;BME280;41562;44.330;23.802;2024-02-14T08:12:31;100393.06;;;10.16;99.40
55675;BME280;41562;44.330;23.802;2024-02-14T08:14:58;100398.91;;;10.07;100.00
55675;BME280;41562;44.330;23.802;2024-02-14T08:17:25;100404.50;;;10.01;100.00
55675;BME280;41562;44.330;23.802;2024-02-14T08:19:53;100400.19;;;9.90;100.00
55675;BME280;41562;44.330;23.802;2024-02-14T08:22:20;100396.88;;;9.67;100.00
55675;BME280;41562;44.330;23.802;2024-02-14T08:24:47;100399.84;;;9.66;100.00
55675;BME280;41562;44.330;23.802;2024-02-14T08:27:15;100403.94;;;9.89;100.00
55675;BME280;41562;44.330;23.802;2024-02-14T08:29:42;100405.81;;;9.93;100.00
55675;BME280;41562;44.330;23.802;2024-02-14T08:32:12;100407.97;;;10.01;100.00
55675;BME280;41562;44.330;23.802;2024-02-14T08:34:39;100412.00;;;10.04;100.00
55675;BME280;41562;44.330;23.802;2024-02-14T08:37:07;100407.25;;;10.21;100.00
55675;BME280;41562;44.330;23.802;2024-02-14T08:39:34;100415.31;;;10.52;100.00
55675;BME280;41562;44.330;23.802;2024-02-14T08:42:01;100415.34;;;10.72;99.18
55675;BME280;41562;44.330;23.802;2024-02-14T08:44:29;100421.50;;;10.93;96.86
55675;BME280;41562;44.330;23.802;2024-02-14T08:46:56;100415.34;;;10.92;100.00
55675;BME280;41562;44.330;23.802;2024-02-14T08:49:23;100414.78;;;10.90;97.28
55675;BME280;41562;44.330;23.802;2024-02-14T08:51:51;100423.09;;;10.73;94.19
55675;BME280;41562;44.330;23.802;2024-02-14T08:54:19;100420.41;;;10.78;93.68
55675;BME280;41562;44.330;23.802;2024-02-14T08:56:46;100424.69;;;10.89;93.34
55675;BME280;41562;44.330;23.802;2024-02-14T08:59:14;100428.72;;;10.72;94.54
55675;BME280;41562;44.330;23.802;2024-02-14T09:01:41;100423.91;;;10.79;93.99
55675;BME280;41562;44.330;23.802;2024-02-14T09:04:08;100440.22;;;10.98;91.59
55675;BME280;41562;44.330;23.802;2024-02-14T09:06:36;100434.84;;;11.03;95.16
55675;BME280;41562;44.330;23.802;2024-02-14T09:09:03;100437.78;;;11.01;95.80
55675;BME280;41562;44.330;23.802;2024-02-14T09:11:31;100441.81;;;10.73;93.22
55675;BME280;41562;44.330;23.802;2024-02-14T09:13:58;100440.22;;;10.67;95.03
55675;BME280;41562;44.330;23.802;2024-02-14T09:16:26;100445.56;;;11.03;95.75
55675;BME280;41562;44.330;23.802;2024-02-14T09:18:53;100443.97;;;10.92;94.27
55675;BME280;41562;44.330;23.802;2024-02-14T09:21:21;100444.78;;;10.92;94.48
55675;BME280;41562;44.330;23.802;2024-02-14T09:23:48;100443.16;;;10.96;92.28
55675;BME280;41562;44.330;23.802;2024-02-14T09:26:16;100441.53;;;11.00;94.58
55675;BME280;41562;44.330;23.802;2024-02-14T09:28:43;100446.88;;;11.36;92.98
55675;BME280;41562;44.330;23.802;2024-02-14T09:31:11;100441.78;;;11.29;90.91
55675;BME280;41562;44.330;23.802;2024-02-14T09:33:38;100449.97;;;11.73;90.87
55675;BME280;41562;44.330;23.802;2024-02-14T09:36:06;100446.69;;;12.51;88.80
55675;BME280;41562;44.330;23.802;2024-02-14T09:38:34;100447.25;;;13.15;86.10
55675;BME280;41562;44.330;23.802;2024-02-14T09:43:38;100455.59;;;13.43;81.45
55675;BME280;41562;44.330;23.802;2024-02-14T09:46:07;100446.59;;;13.81;81.89
55675;BME280;41562;44.330;23.802;2024-02-14T09:48:35;100455.63;;;13.90;76.69
55675;BME280;41562;44.330;23.802;2024-02-14T09:51:04;100450.47;;;13.46;81.12
55675;BME280;41562;44.330;23.802;2024-02-14T09:53:32;100444.63;;;13.39;81.24
55675;BME280;41562;44.330;23.802;2024-02-14T09:56:02;100452.31;;;13.51;77.41
55675;BME280;41562;44.330;23.802;2024-02-14T09:58:30;100452.91;;;13.43;74.71
55675;BME280;41562;44.330;23.802;2024-02-14T10:00:58;100441.84;;;12.86;75.69
55675;BME280;41562;44.330;23.802;2024-02-14T10:03:26;100443.56;;;12.33;78.77
55675;BME280;41562;44.330;23.802;2024-02-14T10:05:54;100428.47;;;12.81;81.19
55675;BME280;41562;44.330;23.802;2024-02-14T10:08:22;100433.84;;;13.15;76.20
55675;BME280;41562;44.330;23.802;2024-02-14T10:10:50;100438.41;;;13.44;75.09
55675;BME280;41562;44.330;23.802;2024-02-14T10:13:20;100438.44;;;13.86;76.09
55675;BME280;41562;44.330;23.802;2024-02-14T10:15:48;100438.28;;;14.01;70.64
55675;BME280;41562;44.330;23.802;2024-02-14T10:18:15;100433.84;;;14.10;72.19
55675;BME280;41562;44.330;23.802;2024-02-14T10:20:53;100423.81;;;13.74;73.81
55675;BME280;41562;44.330;23.802;2024-02-14T10:23:21;100439.44;;;13.95;70.67
55675;BME280;41562;44.330;23.802;2024-02-14T10:25:54;100419.22;;;13.98;72.50
55675;BME280;41562;44.330;23.802;2024-02-14T10:28:23;100426.81;;;14.15;68.14
55675;BME280;41562;44.330;23.802;2024-02-14T10:31:05;100420.63;;;14.33;68.85
55675;BME280;41562;44.330;23.802;2024-02-14T10:33:32;100427.91;;;14.14;68.26
55675;BME280;41562;44.330;23.802;2024-02-14T10:36:01;100430.00;;;14.35;62.90
55675;BME280;41562;44.330;23.802;2024-02-14T10:38:32;100420.59;;;13.95;63.21
55675;BME280;41562;44.330;23.802;2024-02-14T10:41:00;100426.53;;;13.92;69.22
55675;BME280;41562;44.330;23.802;2024-02-14T10:43:28;100422.91;;;13.83;68.77
55675;BME280;41562;44.330;23.802;2024-02-14T10:45:56;100411.66;;;14.00;78.13
55675;BME280;41562;44.330;23.802;2024-02-14T10:48:28;100423.75;;;14.02;69.63
55675;BME280;41562;44.330;23.802;2024-02-14T10:50:59;100420.38;;;14.10;69.25
55675;BME280;41562;44.330;23.802;2024-02-14T10:53:32;100420.13;;;14.31;67.83
55675;BME280;41562;44.330;23.802;2024-02-14T10:56:01;100418.13;;;14.41;65.56
55675;BME280;41562;44.330;23.802;2024-02-14T10:58:30;100422.47;;;14.56;68.39
55675;BME280;41562;44.330;23.802;2024-02-14T11:00:59;100416.16;;;14.98;74.13
55675;BME280;41562;44.330;23.802;2024-02-14T11:03:27;100424.31;;;15.07;65.52
55675;BME280;41562;44.330;23.802;2024-02-14T11:05:55;100429.31;;;15.13;69.40
55675;BME280;41562;44.330;23.802;2024-02-14T11:08:22;100423.97;;;15.27;64.98
55675;BME280;41562;44.330;23.802;2024-02-14T11:10:54;100416.66;;;15.14;63.98
55675;BME280;41562;44.330;23.802;2024-02-14T11:13:29;100411.28;;;14.81;66.70
55675;BME280;41562;44.330;23.802;2024-02-14T11:15:59;100410.59;;;14.57;69.65
55675;BME280;41562;44.330;23.802;2024-02-14T11:18:29;100404.56;;;14.09;68.43
55675;BME280;41562;44.330;23.802;2024-02-14T11:20:57;100407.28;;;13.85;71.04
55675;BME280;41562;44.330;23.802;2024-02-14T11:23:25;100410.44;;;15.00;70.29
55675;BME280;41562;44.330;23.802;2024-02-14T11:26:00;100402.06;;;16.24;68.66
55675;BME280;41562;44.330;23.802;2024-02-14T11:28:28;100413.81;;;15.51;64.59
55675;BME280;41562;44.330;23.802;2024-02-14T11:31:07;100396.81;;;14.45;66.51
55675;BME280;41562;44.330;23.802;2024-02-14T11:33:34;100405.34;;;14.84;67.11
55675;BME280;41562;44.330;23.802;2024-02-14T11:36:08;100403.53;;;14.94;72.76
55675;BME280;41562;44.330;23.802;2024-02-14T11:38:39;100414.16;;;15.04;67.20
55675;BME280;41562;44.330;23.802;2024-02-14T11:41:07;100408.63;;;15.41;64.27
55675;BME280;41562;44.330;23.802;2024-02-14T11:43:35;100407.28;;;15.25;63.93
55675;BME280;41562;44.330;23.802;2024-02-14T11:46:02;100404.25;;;15.59;63.48
55675;BME280;41562;44.330;23.802;2024-02-14T11:48:30;100402.63;;;15.44;66.65
55675;BME280;41562;44.330;23.802;2024-02-14T11:50:57;100408.63;;;15.41;65.44
55675;BME280;41562;44.330;23.802;2024-02-14T11:53:25;100409.41;;;15.28;66.73
55675;BME280;41562;44.330;23.802;2024-02-14T11:55:52;100399.91;;;15.03;69.91
55675;BME280;41562;44.330;23.802;2024-02-14T11:58:20;100401.56;;;14.85;67.74
55675;BME280;41562;44.330;23.802;2024-02-14T12:00:48;100389.97;;;14.34;69.31
55675;BME280;41562;44.330;23.802;2024-02-14T12:03:18;100399.41;;;14.50;68.15
55675;BME280;41562;44.330;23.802;2024-02-14T12:05:47;100398.66;;;13.88;66.93
55675;BME280;41562;44.330;23.802;2024-02-14T12:08:16;100402.84;;;13.76;71.04
55675;BME280;41562;44.330;23.802;2024-02-14T12:10:45;100406.25;;;13.81;71.42
55675;BME280;41562;44.330;23.802;2024-02-14T12:13:14;100405.53;;;13.76;74.21
55675;BME280;41562;44.330;23.802;2024-02-14T12:15:46;100409.13;;;13.90;69.97
55675;BME280;41562;44.330;23.802;2024-02-14T12:18:15;100407.81;;;13.87;71.21
55675;BME280;41562;44.330;23.802;2024-02-14T12:20:43;100402.88;;;13.52;70.81
55675;BME280;41562;44.330;23.802;2024-02-14T12:23:15;100403.31;;;13.06;72.90
55675;BME280;41562;44.330;23.802;2024-02-14T12:25:44;100402.44;;;12.82;77.33
55675;BME280;41562;44.330;23.802;2024-02-14T12:28:18;100401.38;;;12.83;78.32
55675;BME280;41562;44.330;23.802;2024-02-14T12:30:50;100393.97;;;12.70;78.74
55675;BME280;41562;44.330;23.802;2024-02-14T12:33:18;100383.47;;;12.73;77.24
55675;BME280;41562;44.330;23.802;2024-02-14T12:35:47;100389.19;;;12.62;78.04
55675;BME280;41562;44.330;23.802;2024-02-14T12:38:17;100391.94;;;12.85;77.75
55675;BME280;41562;44.330;23.802;2024-02-14T12:40:45;100387.97;;;12.78;77.37
55675;BME280;41562;44.330;23.802;2024-02-14T12:43:14;100395.16;;;12.87;75.90
55675;BME280;41562;44.330;23.802;2024-02-14T12:45:42;100399.03;;;12.71;75.51